Time;durP1;ratioP1;P1;durP2;ratioP2;P2;SDS_P1;SDS_P2;PMS_P1;PMS_P2;Temp;Humidity;BMP_temperature;BMP_pressure;BME280_temperature;BME280_humidity;BME280_pressure;Samples;Min_cycle;Max_cycle;Signal;HPM_P1;HPM_P2
2023/07/14 00:01:33;;;;;;;0.00;0.00;;;17.60;77.30;;;;;;4972651;28;20158;-66
2023/07/14 00:04:00;;;;;;;0.00;0.00;;;17.50;77.20;;;;;;4971750;28;20495;-66
2023/07/14 00:06:25;;;;;;;0.00;0.00;;;17.50;77.60;;;;;;4972406;28;20050;-66
2023/07/14 00:08:51;;;;;;;0.00;0.00;;;17.50;77.60;;;;;;4975765;28;20030;-66
2023/07/14 00:11:18;;;;;;;0.00;0.00;;;17.60;77.70;;;;;;4974712;28;20054;-66
2023/07/14 00:13:44;;;;;;;0.00;0.00;;;17.60;77.90;;;;;;4987818;28;20062;-66
2023/07/14 00:16:15;;;;;;;0.00;0.00;;;17.60;78.10;;;;;;4971389;28;20075;-66
2023/07/14 00:18:42;;;;;;;0.00;0.00;;;17.60;78.10;;;;;;4979147;28;20047;-66
2023/07/14 00:21:27;;;;;;;0.00;0.00;;;17.60;78.20;;;;;;4969589;28;20117;-66
2023/07/14 00:23:59;;;;;;;0.00;0.00;;;17.60;78.30;;;;;;4975600;28;20146;-66
2023/07/14 00:26:26;;;;;;;0.00;0.00;;;17.60;78.40;;;;;;4977435;28;20748;-66
2023/07/14 00:28:52;;;;;;;0.00;0.00;;;17.60;78.30;;;;;;4971763;28;20096;-65
2023/07/14 00:31:20;;;;;;;0.00;0.00;;;17.60;78.30;;;;;;4973234;28;20549;-66
2023/07/14 00:33:49;;;;;;;0.00;0.00;;;17.60;78.50;;;;;;4968143;28;20039;-66
2023/07/14 00:36:17;;;;;;;0.00;0.00;;;17.60;78.60;;;;;;4972370;28;20084;-66
2023/07/14 00:38:43;;;;;;;0.00;0.00;;;17.60;78.90;;;;;;4979982;28;20062;-66
2023/07/14 00:41:21;;;;;;;0.00;0.00;;;17.60;78.70;;;;;;4974661;28;20408;-66
2023/07/14 00:43:48;;;;;;;0.00;0.00;;;17.60;78.70;;;;;;4975766;28;20070;-66
2023/07/14 00:46:31;;;;;;;0.00;0.00;;;17.60;78.70;;;;;;4973046;28;20117;-66
2023/07/14 00:49:05;;;;;;;0.00;0.00;;;17.60;78.90;;;;;;4971478;28;20062;-66
2023/07/14 00:51:35;;;;;;;0.00;0.00;;;17.60;78.90;;;;;;4972102;28;20074;-66
2023/07/14 00:54:01;;;;;;;0.00;0.00;;;17.60;79.40;;;;;;4971565;28;20053;-66
2023/07/14 00:56:47;;;;;;;0.00;0.00;;;17.60;79.40;;;;;;4975297;28;20129;-67
2023/07/14 00:59:15;;;;;;;0.00;0.00;;;17.60;79.30;;;;;;4968858;28;20047;-66
2023/07/14 01:02:11;;;;;;;0.00;0.00;;;17.60;79.60;;;;;;4972059;28;20407;-67
2023/07/14 01:04:47;;;;;;;0.00;0.00;;;17.60;79.40;;;;;;4974440;28;20053;-66
2023/07/14 01:07:15;;;;;;;0.00;0.00;;;17.60;79.20;;;;;;4983355;28;20057;-67
2023/07/14 01:09:42;;;;;;;0.00;0.00;;;17.60;79.20;;;;;;4973575;28;20606;-67
2023/07/14 01:12:12;;;;;;;0.00;0.00;;;17.60;79.30;;;;;;4972848;28;20082;-66
2023/07/14 01:14:42;;;;;;;0.00;0.00;;;17.60;79.60;;;;;;4972036;28;20049;-66
2023/07/14 01:17:09;;;;;;;0.00;0.00;;;17.60;79.60;;;;;;4972265;28;20058;-66
2023/07/14 01:19:51;;;;;;;0.00;0.00;;;17.60;79.40;;;;;;4979367;28;20138;-67
2023/07/14 01:22:41;;;;;;;0.00;0.00;;;17.60;79.60;;;;;;4968455;28;20062;-66
2023/07/14 01:25:28;;;;;;;0.00;0.00;;;17.60;79.70;;;;;;4972620;28;20054;-66
2023/07/14 01:27:54;;;;;;;0.00;0.00;;;17.60;79.80;;;;;;4970242;28;20074;-66
2023/07/14 01:30:20;;;;;;;0.00;0.00;;;17.60;79.70;;;;;;4970886;28;20050;-66
2023/07/14 01:32:48;;;;;;;0.00;0.00;;;17.50;79.30;;;;;;4980010;28;20058;-66
2023/07/14 01:35:16;;;;;;;0.00;0.00;;;17.50;79.60;;;;;;4976751;28;20035;-66
2023/07/14 01:37:42;;;;;;;0.00;0.00;;;17.50;79.60;;;;;;4969520;28;20094;-66
2023/07/14 01:40:14;;;;;;;0.00;0.00;;;17.50;79.60;;;;;;4970907;28;20084;-67
2023/07/14 01:42:43;;;;;;;0.00;0.00;;;17.50;79.50;;;;;;4970637;28;20082;-66
2023/07/14 01:45:13;;;;;;;0.00;0.00;;;17.50;79.50;;;;;;4971213;28;20053;-66
2023/07/14 01:47:42;;;;;;;0.00;0.00;;;17.40;79.20;;;;;;4971399;28;20056;-66
2023/07/14 01:50:18;;;;;;;0.00;0.00;;;17.40;79.30;;;;;;4976731;28;20090;-66
2023/07/14 01:52:46;;;;;;;0.00;0.00;;;17.30;79.30;;;;;;4966012;28;20046;-66
2023/07/14 01:55:14;;;;;;;0.00;0.00;;;17.30;79.30;;;;;;4979458;28;20042;-66
2023/07/14 01:57:42;;;;;;;0.00;0.00;;;17.30;79.30;;;;;;4968195;28;20047;-66
2023/07/14 02:00:11;;;;;;;0.00;0.00;;;17.30;79.40;;;;;;4968401;28;20459;-66
2023/07/14 02:02:39;;;;;;;0.00;0.00;;;17.20;79.40;;;;;;4971162;28;20447;-67
2023/07/14 02:05:30;;;;;;;0.00;0.00;;;17.20;79.60;;;;;;4971613;28;20089;-66
2023/07/14 02:08:00;;;;;;;0.00;0.00;;;17.20;79.50;;;;;;4971133;28;20043;-67
2023/07/14 02:10:26;;;;;;;0.00;0.00;;;17.20;79.80;;;;;;4970581;28;20499;-66
2023/07/14 02:12:54;;;;;;;0.00;0.00;;;17.10;79.80;;;;;;4971015;28;20105;-66
2023/07/14 02:15:25;;;;;;;0.00;0.00;;;17.10;79.90;;;;;;4979008;28;20074;-66
2023/07/14 02:17:53;;;;;;;0.00;0.00;;;17.10;79.90;;;;;;4973884;28;20130;-66
2023/07/14 02:20:33;;;;;;;0.00;0.00;;;17.10;79.90;;;;;;4971280;28;20047;-66
2023/07/14 02:23:01;;;;;;;0.00;0.00;;;17.10;80.20;;;;;;4969509;28;20051;-66
2023/07/14 02:25:33;;;;;;;0.00;0.00;;;17.10;80.10;;;;;;4953129;28;20050;-66
2023/07/14 02:27:59;;;;;;;0.00;0.00;;;17.10;79.90;;;;;;4970461;28;20054;-66
2023/07/14 02:30:26;;;;;;;0.00;0.00;;;17.10;80.20;;;;;;4970251;28;20047;-66
2023/07/14 02:33:04;;;;;;;0.00;0.00;;;17.10;80.20;;;;;;4969108;28;20132;-67
2023/07/14 02:35:44;;;;;;;0.00;0.00;;;17.10;80.30;;;;;;4968746;28;20085;-67
2023/07/14 02:38:15;;;;;;;0.00;0.00;;;17.00;80.40;;;;;;4953421;28;20050;-66
2023/07/14 02:40:52;;;;;;;0.00;0.00;;;17.10;80.40;;;;;;4974104;28;20050;-66
2023/07/14 02:43:20;;;;;;;0.00;0.00;;;17.10;80.20;;;;;;4970625;28;20039;-66
2023/07/14 02:45:48;;;;;;;0.10;0.10;;;17.00;80.20;;;;;;4970487;28;20054;-66
2023/07/14 02:48:18;;;;;;;0.00;0.00;;;17.00;80.30;;;;;;4970989;28;20039;-66
2023/07/14 02:50:44;;;;;;;0.00;0.00;;;17.00;80.40;;;;;;4972098;28;20126;-67
2023/07/14 02:53:10;;;;;;;0.00;0.00;;;16.90;80.10;;;;;;4970405;28;20178;-66
2023/07/14 02:55:37;;;;;;;0.00;0.00;;;16.90;80.10;;;;;;4970002;28;20046;-66
2023/07/14 02:58:04;;;;;;;0.00;0.00;;;16.90;79.90;;;;;;4968847;28;20618;-66
2023/07/14 03:00:30;;;;;;;0.00;0.00;;;16.90;80.00;;;;;;4972288;28;20419;-66
2023/07/14 03:02:56;;;;;;;0.00;0.00;;;16.80;80.00;;;;;;4978913;28;20038;-66
2023/07/14 03:05:21;;;;;;;0.05;0.05;;;16.80;80.30;;;;;;4971290;28;20125;-66
2023/07/14 03:07:47;;;;;;;0.00;0.00;;;16.70;80.80;;;;;;4975081;28;20433;-66
2023/07/14 03:10:13;;;;;;;0.00;0.00;;;16.70;80.70;;;;;;4970062;28;20050;-66
2023/07/14 03:12:39;;;;;;;0.00;0.00;;;16.70;80.80;;;;;;4970263;28;20038;-66
2023/07/14 03:15:06;;;;;;;0.00;0.00;;;16.70;80.70;;;;;;4970366;28;20050;-66
2023/07/14 03:17:32;;;;;;;0.00;0.00;;;16.60;80.80;;;;;;4971856;28;20050;-66
2023/07/14 03:19:58;;;;;;;0.00;0.00;;;16.60;81.20;;;;;;4972839;28;20372;-66
2023/07/14 03:22:25;;;;;;;0.00;0.00;;;16.60;81.10;;;;;;4971511;28;20057;-66
2023/07/14 03:24:51;;;;;;;0.00;0.00;;;16.60;81.00;;;;;;4970200;28;20129;-66
2023/07/14 03:27:17;;;;;;;0.00;0.00;;;16.60;81.20;;;;;;4969706;28;20130;-66
2023/07/14 03:29:43;;;;;;;0.00;0.00;;;16.60;81.00;;;;;;4969782;28;20038;-66
2023/07/14 03:32:12;;;;;;;0.00;0.00;;;16.60;80.80;;;;;;4970013;28;20094;-66
2023/07/14 03:34:38;;;;;;;0.00;0.00;;;16.60;80.60;;;;;;4969256;28;20047;-66
2023/07/14 03:37:04;;;;;;;0.00;0.00;;;16.50;80.80;;;;;;4973457;28;20042;-66
2023/07/14 03:39:30;;;;;;;0.00;0.00;;;16.50;81.00;;;;;;4968344;28;20038;-66
2023/07/14 03:41:57;;;;;;;0.00;0.00;;;16.60;81.10;;;;;;4968699;28;20500;-66
2023/07/14 03:44:24;;;;;;;0.00;0.00;;;16.60;81.20;;;;;;4968944;28;20082;-66
2023/07/14 03:46:50;;;;;;;0.00;0.00;;;16.50;81.00;;;;;;4969617;28;20077;-66
2023/07/14 03:49:16;;;;;;;0.00;0.00;;;16.60;80.90;;;;;;4968078;28;20063;-66
2023/07/14 03:51:42;;;;;;;0.00;0.00;;;16.50;80.90;;;;;;4970166;28;20082;-66
2023/07/14 03:54:09;;;;;;;0.00;0.00;;;16.50;81.00;;;;;;4970362;28;20081;-66
2023/07/14 03:56:35;;;;;;;0.00;0.00;;;16.50;81.30;;;;;;4968791;28;20179;-66
2023/07/14 03:59:01;;;;;;;0.00;0.00;;;16.50;81.10;;;;;;4968208;28;20038;-66
2023/07/14 04:01:27;;;;;;;0.00;0.00;;;16.60;81.10;;;;;;4965058;28;20039;-66
2023/07/14 04:03:54;;;;;;;0.00;0.00;;;16.60;81.10;;;;;;4963075;28;20117;-66
2023/07/14 04:06:19;;;;;;;0.00;0.00;;;16.60;81.00;;;;;;4992445;22;20181;-66
2023/07/14 04:08:45;;;;;;;0.00;0.00;;;16.50;81.20;;;;;;4968028;28;20490;-66
2023/07/14 04:11:12;;;;;;;0.00;0.00;;;16.50;81.40;;;;;;4969018;28;20039;-66
2023/07/14 04:13:38;;;;;;;0.00;0.00;;;16.60;81.40;;;;;;4968446;28;20047;-66
2023/07/14 04:16:07;;;;;;;0.00;0.00;;;16.60;81.30;;;;;;4967586;28;20066;-66
2023/07/14 04:18:34;;;;;;;0.00;0.00;;;16.60;81.50;;;;;;4967801;28;20074;-66
2023/07/14 04:21:06;;;;;;;0.00;0.00;;;16.60;81.50;;;;;;4968026;28;20043;-66
2023/07/14 04:23:32;;;;;;;0.00;0.00;;;16.60;81.40;;;;;;4969018;28;20120;-66
2023/07/14 04:25:59;;;;;;;0.00;0.00;;;16.50;81.00;;;;;;4971040;28;20420;-66
2023/07/14 04:28:25;;;;;;;0.00;0.00;;;16.50;81.20;;;;;;4968199;28;20085;-65
2023/07/14 04:30:55;;;;;;;0.00;0.00;;;16.50;81.00;;;;;;4969411;28;20381;-66
2023/07/14 04:33:21;;;;;;;0.00;0.00;;;16.50;81.00;;;;;;4967814;28;20058;-66
2023/07/14 04:35:51;;;;;;;0.00;0.00;;;16.40;81.10;;;;;;4968310;28;20415;-66
2023/07/14 04:38:17;;;;;;;0.00;0.00;;;16.40;81.30;;;;;;4967616;28;20073;-66
2023/07/14 04:40:44;;;;;;;0.00;0.00;;;16.40;81.40;;;;;;4975756;28;20057;-66
2023/07/14 04:43:14;;;;;;;0.00;0.00;;;16.40;81.50;;;;;;4977359;28;20039;-65
2023/07/14 04:45:41;;;;;;;0.00;0.00;;;16.40;81.50;;;;;;4972247;28;20597;-66
2023/07/14 04:48:09;;;;;;;0.00;0.00;;;16.50;81.50;;;;;;4968822;28;20491;-66
2023/07/14 04:50:35;;;;;;;0.00;0.00;;;16.50;81.70;;;;;;4971764;28;20046;-66
2023/07/14 04:53:05;;;;;;;0.00;0.00;;;16.60;81.80;;;;;;4971970;28;20126;-66
2023/07/14 04:55:44;;;;;;;0.00;0.00;;;16.60;81.80;;;;;;4971559;28;20054;-66
2023/07/14 04:58:12;;;;;;;0.00;0.00;;;16.60;81.60;;;;;;4969600;28;20097;-66
2023/07/14 05:00:39;;;;;;;0.00;0.00;;;16.70;81.50;;;;;;4970318;28;20077;-65
2023/07/14 05:03:06;;;;;;;0.00;0.00;;;16.80;81.80;;;;;;4971949;28;20035;-65
2023/07/14 05:05:32;;;;;;;0.00;0.00;;;16.80;81.70;;;;;;4973277;28;20054;-66
2023/07/14 05:08:00;;;;;;;0.00;0.00;;;16.80;81.70;;;;;;4971753;28;20051;-66
2023/07/14 05:10:27;;;;;;;0.00;0.00;;;16.90;82.10;;;;;;4982970;28;20046;-66
2023/07/14 05:12:56;;;;;;;0.00;0.00;;;16.90;82.10;;;;;;4972153;28;20101;-66
2023/07/14 05:15:23;;;;;;;0.00;0.00;;;17.00;82.20;;;;;;4973603;28;20046;-66
2023/07/14 05:17:49;;;;;;;0.00;0.00;;;17.00;82.20;;;;;;4971360;28;20070;-66
2023/07/14 05:20:16;;;;;;;0.00;0.00;;;17.10;82.20;;;;;;4971131;28;20348;-66
2023/07/14 05:22:45;;;;;;;0.00;0.00;;;17.10;81.90;;;;;;4972744;28;20459;-66
2023/07/14 05:25:11;;;;;;;0.00;0.00;;;17.10;81.90;;;;;;4972573;28;20047;-66
2023/07/14 05:27:38;;;;;;;0.00;0.00;;;17.30;82.40;;;;;;4971325;28;20050;-65
2023/07/14 05:30:05;;;;;;;0.00;0.00;;;17.30;82.60;;;;;;4975410;28;20506;-64
2023/07/14 05:32:32;;;;;;;0.00;0.00;;;17.30;82.40;;;;;;4971023;28;20507;-65
2023/07/14 05:34:58;;;;;;;0.00;0.00;;;17.30;82.40;;;;;;4971294;28;20586;-65
2023/07/14 05:37:25;;;;;;;0.00;0.00;;;17.50;82.60;;;;;;4967045;28;20042;-64
2023/07/14 05:39:51;;;;;;;0.00;0.00;;;17.40;82.40;;;;;;4968271;28;20053;-65
2023/07/14 05:42:17;;;;;;;0.00;0.00;;;17.50;82.10;;;;;;4970174;28;20443;-65
2023/07/14 05:44:43;;;;;;;0.00;0.00;;;17.50;82.20;;;;;;4965357;28;20055;-65
2023/07/14 05:47:09;;;;;;;0.00;0.00;;;17.60;82.10;;;;;;4968715;28;20035;-66
2023/07/14 05:49:35;;;;;;;0.00;0.00;;;17.60;82.60;;;;;;4950377;28;20141;-65
2023/07/14 05:52:01;;;;;;;0.00;0.00;;;17.60;82.20;;;;;;4967266;28;20050;-66
2023/07/14 05:54:27;;;;;;;0.00;0.00;;;17.60;82.20;;;;;;4968974;28;20055;-66
2023/07/14 05:56:53;;;;;;;0.00;0.00;;;17.70;82.40;;;;;;4965416;28;20053;-66
2023/07/14 05:59:19;;;;;;;0.00;0.00;;;17.80;82.40;;;;;;4967481;28;20129;-66
2023/07/14 06:01:48;;;;;;;0.00;0.00;;;17.80;82.50;;;;;;4968107;28;20482;-64
2023/07/14 06:04:18;;;;;;;0.00;0.00;;;17.90;82.50;;;;;;4967577;28;20438;-65
2023/07/14 06:06:44;;;;;;;0.20;0.20;;;17.90;82.80;;;;;;4965935;28;20129;-65
2023/07/14 06:09:11;;;;;;;0.00;0.00;;;17.90;82.30;;;;;;4967157;28;20583;-65
2023/07/14 06:11:37;;;;;;;0.00;0.00;;;17.90;82.00;;;;;;4951152;28;20047;-65
2023/07/14 06:14:03;;;;;;;0.00;0.00;;;18.00;81.90;;;;;;4965495;28;20075;-65
2023/07/14 06:16:28;;;;;;;0.00;0.00;;;18.10;81.90;;;;;;4967484;28;20038;-65
2023/07/14 06:18:54;;;;;;;0.00;0.00;;;18.10;81.40;;;;;;4966976;28;20035;-64
2023/07/14 06:21:20;;;;;;;0.00;0.00;;;18.10;81.20;;;;;;4964829;28;20113;-65
2023/07/14 06:23:45;;;;;;;0.00;0.00;;;18.20;80.70;;;;;;4967904;28;20554;-65
2023/07/14 06:26:12;;;;;;;0.00;0.00;;;18.20;80.40;;;;;;4969497;28;20464;-66
2023/07/14 06:28:38;;;;;;;0.00;0.00;;;18.30;80.20;;;;;;4969772;28;20035;-72
2023/07/14 06:31:06;;;;;;;0.00;0.00;;;18.30;79.90;;;;;;4970071;28;20043;-71
2023/07/14 06:33:33;;;;;;;0.00;0.00;;;18.40;80.30;;;;;;4969218;28;20049;-71
2023/07/14 06:36:00;;;;;;;0.00;0.00;;;18.40;80.20;;;;;;4969628;28;20049;-72
2023/07/14 06:38:28;;;;;;;0.00;0.00;;;18.50;79.90;;;;;;4951772;28;20570;-72
2023/07/14 06:40:56;;;;;;;0.00;0.00;;;18.50;79.90;;;;;;4968581;28;20503;-72
2023/07/14 06:43:22;;;;;;;0.03;0.03;;;18.60;79.90;;;;;;4966580;28;20043;-72
2023/07/14 06:45:48;;;;;;;0.00;0.00;;;18.60;79.60;;;;;;4950583;28;20558;-72
2023/07/14 06:48:14;;;;;;;0.00;0.00;;;18.50;79.50;;;;;;4968600;28;20057;-72
2023/07/14 06:50:40;;;;;;;0.00;0.00;;;18.60;79.70;;;;;;4969680;28;20047;-72
2023/07/14 06:53:06;;;;;;;0.00;0.00;;;18.60;79.30;;;;;;4969292;28;20040;-72
2023/07/14 06:55:32;;;;;;;0.00;0.00;;;18.60;79.00;;;;;;4969194;28;20558;-71
2023/07/14 06:57:57;;;;;;;1.23;0.63;;;18.70;78.70;;;;;;4971130;28;20039;-71
2023/07/14 07:00:24;;;;;;;0.00;0.00;;;18.70;78.40;;;;;;4950248;28;20050;-71
2023/07/14 07:02:50;;;;;;;0.00;0.00;;;18.70;78.10;;;;;;4951749;28;20046;-73
2023/07/14 07:05:16;;;;;;;0.00;0.00;;;18.70;78.10;;;;;;4968615;28;20112;-74
2023/07/14 07:07:42;;;;;;;0.00;0.00;;;18.70;77.70;;;;;;4958143;28;20119;-74
2023/07/14 07:10:08;;;;;;;0.00;0.00;;;18.70;77.80;;;;;;4969515;28;20047;-72
2023/07/14 07:12:34;;;;;;;0.00;0.00;;;18.70;77.70;;;;;;4951385;28;20367;-73
2023/07/14 07:15:00;;;;;;;0.00;0.00;;;18.80;77.40;;;;;;4970471;28;20089;-73
2023/07/14 07:17:25;;;;;;;0.00;0.00;;;18.70;77.20;;;;;;4967375;28;20097;-71
2023/07/14 07:19:51;;;;;;;1.17;0.52;;;18.80;77.40;;;;;;4968198;28;20051;-72
2023/07/14 07:22:17;;;;;;;0.00;0.00;;;18.90;77.40;;;;;;4969034;28;20058;-73
2023/07/14 07:24:42;;;;;;;0.00;0.00;;;18.90;77.00;;;;;;4970040;28;20626;-73
2023/07/14 07:27:08;;;;;;;0.10;0.10;;;19.00;77.00;;;;;;4969455;28;20047;-72
2023/07/14 07:29:34;;;;;;;0.00;0.00;;;19.00;76.90;;;;;;4969335;28;20444;-72
2023/07/14 07:31:59;;;;;;;0.00;0.00;;;19.10;76.50;;;;;;4969739;28;20062;-72
2023/07/14 07:34:25;;;;;;;0.00;0.00;;;19.10;76.30;;;;;;4969761;28;20389;-72
2023/07/14 07:36:52;;;;;;;0.00;0.00;;;19.20;76.10;;;;;;4968273;28;20130;-72
2023/07/14 07:39:17;;;;;;;0.00;0.00;;;19.30;76.10;;;;;;4973241;28;20038;-73
2023/07/14 07:41:43;;;;;;;0.00;0.00;;;19.30;75.50;;;;;;4974572;28;20058;-72
2023/07/14 07:44:09;;;;;;;0.00;0.00;;;19.40;75.50;;;;;;4968849;28;20399;-72
2023/07/14 07:46:36;;;;;;;0.00;0.00;;;19.40;73.90;;;;;;4969536;28;20403;-72
2023/07/14 07:49:02;;;;;;;0.00;0.00;;;19.50;74.30;;;;;;4971492;28;20038;-72
2023/07/14 07:51:29;;;;;;;0.00;0.00;;;19.40;73.50;;;;;;4976626;28;20043;-72
2023/07/14 07:53:55;;;;;;;0.00;0.00;;;19.40;72.60;;;;;;4969381;28;20043;-72
2023/07/14 07:56:21;;;;;;;0.00;0.00;;;19.50;73.10;;;;;;4952632;28;20566;-72
2023/07/14 07:58:47;;;;;;;0.00;0.00;;;19.50;73.60;;;;;;4969268;28;20057;-72
2023/07/14 08:01:24;;;;;;;0.00;0.00;;;19.60;73.40;;;;;;4969695;28;20122;-72
2023/07/14 08:03:51;;;;;;;0.00;0.00;;;19.60;74.10;;;;;;4969511;28;20035;-72
2023/07/14 08:06:18;;;;;;;0.00;0.00;;;19.70;74.30;;;;;;4945234;28;20133;-73
2023/07/14 08:08:47;;;;;;;0.00;0.00;;;19.90;74.30;;;;;;4967874;28;20438;-72
2023/07/14 08:11:13;;;;;;;0.30;0.30;;;20.00;73.90;;;;;;4949264;28;20038;-72
2023/07/14 08:13:40;;;;;;;0.00;0.00;;;20.00;73.70;;;;;;4968340;28;20042;-72
2023/07/14 08:16:06;;;;;;;0.00;0.00;;;20.10;72.20;;;;;;4952886;28;20053;-72
2023/07/14 08:18:32;;;;;;;0.00;0.00;;;20.10;72.20;;;;;;4955906;28;20047;-72
2023/07/14 08:20:58;;;;;;;0.00;0.00;;;20.10;70.30;;;;;;4970910;28;20043;-72
2023/07/14 08:23:25;;;;;;;0.00;0.00;;;20.10;69.40;;;;;;4971998;28;20137;-72
2023/07/14 08:25:58;;;;;;;0.00;0.00;;;20.10;69.50;;;;;;4967665;28;20047;-72
2023/07/14 08:28:25;;;;;;;0.28;0.20;;;20.20;70.70;;;;;;4972941;28;20059;-72
2023/07/14 08:30:52;;;;;;;0.20;0.20;;;20.20;69.10;;;;;;4972845;28;20089;-74
2023/07/14 08:33:19;;;;;;;1.08;0.47;;;20.30;69.60;;;;;;4974483;28;20046;-74
2023/07/14 08:35:45;;;;;;;0.00;0.00;;;20.30;69.80;;;;;;4979490;28;20198;-74
2023/07/14 08:38:11;;;;;;;0.10;0.10;;;20.30;70.20;;;;;;4972230;28;20303;-74
2023/07/14 08:40:45;;;;;;;0.00;0.00;;;20.40;70.00;;;;;;4955245;28;20046;-75
2023/07/14 08:43:16;;;;;;;0.00;0.00;;;20.40;68.60;;;;;;4972404;28;20053;-74
2023/07/14 08:46:13;;;;;;;0.00;0.00;;;20.50;67.90;;;;;;4956170;28;20051;-74
2023/07/14 08:48:45;;;;;;;0.40;0.40;;;20.50;67.40;;;;;;4972251;28;20051;-74
2023/07/14 08:51:17;;;;;;;0.00;0.00;;;20.50;67.80;;;;;;4971659;28;20139;-74
2023/07/14 08:53:52;;;;;;;0.00;0.00;;;20.50;67.60;;;;;;4973841;28;20052;-74
2023/07/14 08:56:20;;;;;;;0.00;0.00;;;20.60;66.90;;;;;;4968799;28;20051;-75
2023/07/14 08:58:47;;;;;;;0.00;0.00;;;20.70;68.70;;;;;;4961161;28;20123;-71
2023/07/14 09:01:25;;;;;;;0.00;0.00;;;20.60;66.40;;;;;;4973479;28;20054;-69
2023/07/14 09:03:56;;;;;;;0.00;0.00;;;20.50;68.00;;;;;;4972429;28;20066;-69
2023/07/14 09:06:36;;;;;;;0.00;0.00;;;20.60;68.50;;;;;;4972154;28;20392;-71
2023/07/14 09:09:09;;;;;;;0.00;0.00;;;20.60;68.50;;;;;;4959203;28;20092;-69
2023/07/14 09:11:41;;;;;;;0.00;0.00;;;20.50;68.60;;;;;;4976351;28;20129;-68
2023/07/14 09:14:33;;;;;;;0.20;0.20;;;20.40;68.80;;;;;;4972236;28;20081;-69
2023/07/14 09:17:01;;;;;;;0.00;0.00;;;20.30;68.80;;;;;;4950819;28;20047;-69
2023/07/14 09:19:56;;;;;;;0.00;0.00;;;20.20;68.40;;;;;;4976656;28;20520;-69
2023/07/14 09:22:40;;;;;;;0.00;0.00;;;20.20;68.90;;;;;;4957453;28;20039;-68
2023/07/14 09:25:44;;;;;;;0.00;0.00;;;20.20;69.30;;;;;;4980302;28;20082;-69
2023/07/14 09:28:42;;;;;;;0.00;0.00;;;20.30;68.60;;;;;;4970276;28;20047;-71
2023/07/14 09:31:53;;;;;;;0.00;0.00;;;20.30;67.20;;;;;;4967256;28;20575;-71
2023/07/14 09:34:24;;;;;;;0.00;0.00;;;20.30;67.30;;;;;;4970104;28;20055;-71
2023/07/14 09:36:52;;;;;;;0.00;0.00;;;20.40;68.20;;;;;;4971367;28;20051;-71
2023/07/14 09:39:41;;;;;;;0.00;0.00;;;20.50;68.30;;;;;;4971720;28;20039;-71
2023/07/14 09:42:21;;;;;;;0.00;0.00;;;20.50;66.20;;;;;;4971521;28;20109;-71
2023/07/14 09:44:47;;;;;;;0.00;0.00;;;20.60;66.00;;;;;;4971218;28;20130;-71
2023/07/14 09:47:13;;;;;;;0.30;0.30;;;20.60;65.30;;;;;;4971841;28;20151;-71
2023/07/14 09:49:46;;;;;;;0.00;0.00;;;20.60;65.80;;;;;;4971625;28;20138;-71
2023/07/14 09:52:18;;;;;;;0.00;0.00;;;20.50;64.80;;;;;;4971588;28;20133;-71
2023/07/14 09:54:59;;;;;;;0.00;0.00;;;20.60;65.50;;;;;;4971535;28;20483;-71
2023/07/14 09:57:32;;;;;;;0.00;0.00;;;20.70;66.50;;;;;;4970949;28;20537;-71
2023/07/14 10:00:14;;;;;;;0.75;0.75;;;20.80;66.50;;;;;;4969929;28;20057;-70
2023/07/14 10:02:41;;;;;;;0.00;0.00;;;20.80;65.80;;;;;;4952242;29;20508;-71
2023/07/14 10:05:22;;;;;;;0.00;0.00;;;21.00;66.50;;;;;;4960057;28;20062;-70
2023/07/14 10:07:48;;;;;;;0.35;0.35;;;21.00;65.60;;;;;;4971075;28;20054;-71
2023/07/14 10:10:19;;;;;;;0.00;0.00;;;21.00;65.90;;;;;;4971041;28;20551;-71
2023/07/14 10:12:48;;;;;;;0.00;0.00;;;21.10;65.30;;;;;;4971449;28;20046;-71
2023/07/14 10:15:30;;;;;;;0.00;0.00;;;21.10;65.50;;;;;;4971423;28;20043;-71
2023/07/14 10:17:58;;;;;;;0.00;0.00;;;21.10;65.20;;;;;;4953840;28;20403;-71
2023/07/14 10:20:24;;;;;;;0.00;0.00;;;21.20;66.20;;;;;;4971305;28;20053;-71
2023/07/14 10:22:53;;;;;;;1.08;0.28;;;21.40;66.20;;;;;;4970006;28;20122;-71
2023/07/14 10:25:20;;;;;;;0.00;0.00;;;21.50;64.30;;;;;;4971019;28;20039;-71
2023/07/14 10:28:05;;;;;;;0.00;0.00;;;21.60;63.40;;;;;;4970804;28;20050;-71
2023/07/14 10:30:57;;;;;;;0.00;0.00;;;21.80;64.10;;;;;;4970620;28;20043;-71
2023/07/14 10:33:40;;;;;;;0.00;0.00;;;22.10;63.60;;;;;;4970590;28;20058;-71
2023/07/14 10:36:20;;;;;;;0.00;0.00;;;22.00;63.30;;;;;;4970071;28;20055;-71
2023/07/14 10:38:55;;;;;;;0.00;0.00;;;22.00;62.30;;;;;;4970602;28;20533;-71
2023/07/14 10:41:23;;;;;;;0.00;0.00;;;22.10;62.60;;;;;;4970524;28;20627;-70
2023/07/14 10:44:01;;;;;;;0.10;0.10;;;22.20;63.30;;;;;;4970790;28;20049;-71
2023/07/14 10:46:43;;;;;;;0.00;0.00;;;22.30;64.00;;;;;;4969899;28;20408;-71
2023/07/14 10:49:26;;;;;;;0.00;0.00;;;22.40;63.70;;;;;;4970642;28;20138;-71
2023/07/14 10:52:05;;;;;;;0.00;0.00;;;22.40;63.40;;;;;;4970401;28;20480;-71
2023/07/14 10:54:49;;;;;;;0.00;0.00;;;22.40;60.80;;;;;;4969625;28;20519;-71
2023/07/14 10:57:40;;;;;;;0.00;0.00;;;22.50;61.20;;;;;;4970682;28;20042;-71
2023/07/14 11:00:20;;;;;;;0.00;0.00;;;22.50;62.30;;;;;;4970000;28;20499;-70
2023/07/14 11:02:59;;;;;;;0.15;0.10;;;22.60;62.20;;;;;;4970517;28;20046;-70
2023/07/14 11:05:27;;;;;;;0.00;0.00;;;22.60;61.40;;;;;;4970165;28;20058;-71
2023/07/14 11:07:53;;;;;;;0.00;0.00;;;22.60;62.40;;;;;;4952807;28;20046;-71
2023/07/14 11:10:37;;;;;;;0.00;0.00;;;22.60;60.10;;;;;;4970366;28;20519;-71
2023/07/14 11:13:15;;;;;;;0.00;0.00;;;22.60;60.60;;;;;;4970045;28;20047;-71
2023/07/14 11:15:46;;;;;;;0.10;0.10;;;22.70;61.30;;;;;;4970577;28;20047;-71
2023/07/14 11:18:53;;;;;;;0.00;0.00;;;22.80;60.70;;;;;;4970132;28;20057;-70
2023/07/14 11:21:21;;;;;;;0.00;0.00;;;22.80;59.90;;;;;;4964371;28;20410;-71
2023/07/14 11:24:01;;;;;;;0.00;0.00;;;22.90;60.40;;;;;;4969880;28;20039;-71
2023/07/14 11:26:37;;;;;;;0.00;0.00;;;23.00;60.40;;;;;;4970101;28;20101;-71
2023/07/14 11:29:12;;;;;;;0.00;0.00;;;23.00;59.60;;;;;;4969774;28;20082;-71
2023/07/14 11:31:46;;;;;;;0.00;0.00;;;23.00;59.70;;;;;;4969521;28;20082;-71
2023/07/14 11:34:36;;;;;;;0.00;0.00;;;23.00;60.60;;;;;;4970040;28;20423;-70
2023/07/14 11:37:38;;;;;;;0.00;0.00;;;22.80;61.30;;;;;;4970079;28;20050;-71
2023/07/14 11:40:13;;;;;;;0.00;0.00;;;22.80;61.40;;;;;;4969794;28;20050;-71
2023/07/14 11:42:39;;;;;;;0.00;0.00;;;22.80;62.10;;;;;;4965587;28;20105;-68
2023/07/14 11:45:19;;;;;;;0.08;0.08;;;22.80;62.20;;;;;;4972004;28;20050;-67
2023/07/14 11:47:45;;;;;;;0.00;0.00;;;22.80;61.10;;;;;;4966002;28;20089;-71
2023/07/14 11:50:17;;;;;;;0.20;0.20;;;22.70;61.20;;;;;;4973481;28;20046;-71
2023/07/14 11:53:10;;;;;;;0.10;0.10;;;22.60;61.60;;;;;;4973729;28;20050;-72
2023/07/14 11:55:40;;;;;;;0.00;0.00;;;22.60;62.70;;;;;;4972927;28;20050;-72
2023/07/14 11:58:20;;;;;;;0.00;0.00;;;22.80;63.00;;;;;;4973286;28;20470;-68
2023/07/14 12:00:51;;;;;;;0.05;0.05;;;22.90;62.10;;;;;;4973353;28;20039;-68
2023/07/14 12:03:38;;;;;;;0.00;0.00;;;23.00;62.00;;;;;;4973758;28;20384;-69
2023/07/14 12:06:19;;;;;;;0.05;0.05;;;23.00;61.60;;;;;;4973109;28;20129;-69
2023/07/14 12:09:04;;;;;;;0.00;0.00;;;23.00;62.20;;;;;;4973061;28;20057;-69
2023/07/14 12:11:39;;;;;;;0.00;0.00;;;23.00;63.00;;;;;;4973106;28;20054;-69
2023/07/14 12:14:29;;;;;;;0.08;0.08;;;23.10;61.20;;;;;;4955748;28;20137;-70
2023/07/14 12:16:55;;;;;;;0.43;0.43;;;23.30;61.90;;;;;;4973465;28;20109;-69
2023/07/14 12:19:41;;;;;;;0.10;0.10;;;23.30;61.70;;;;;;4973202;28;20039;-69
2023/07/14 12:22:09;;;;;;;0.10;0.10;;;23.30;60.40;;;;;;4955692;28;20057;-69
2023/07/14 12:24:58;;;;;;;0.00;0.00;;;23.30;60.30;;;;;;4972945;28;20396;-69
2023/07/14 12:27:34;;;;;;;0.00;0.00;;;23.20;60.50;;;;;;4965890;28;20082;-69
2023/07/14 12:30:15;;;;;;;0.00;0.00;;;23.30;60.80;;;;;;4955058;28;20146;-69
2023/07/14 12:32:41;;;;;;;0.85;0.80;;;23.30;59.90;;;;;;4972717;28;20047;-69
2023/07/14 12:35:14;;;;;;;0.00;0.00;;;23.30;60.80;;;;;;4963674;28;20043;-68
2023/07/14 12:37:40;;;;;;;0.00;0.00;;;23.10;59.30;;;;;;4965913;28;20039;-68
2023/07/14 12:40:18;;;;;;;0.00;0.00;;;23.00;60.80;;;;;;4972364;28;20093;-69
2023/07/14 12:42:44;;;;;;;0.00;0.00;;;23.00;60.70;;;;;;4972789;28;20051;-70
2023/07/14 12:45:12;;;;;;;0.00;0.00;;;22.90;60.40;;;;;;4973830;28;20139;-69
2023/07/14 12:47:43;;;;;;;0.00;0.00;;;22.90;61.30;;;;;;4983141;28;20133;-70
2023/07/14 12:50:18;;;;;;;0.00;0.00;;;22.70;60.40;;;;;;4972281;28;20059;-69
2023/07/14 12:52:44;;;;;;;0.00;0.00;;;22.50;60.70;;;;;;4941507;28;20078;-69
2023/07/14 12:55:16;;;;;;;0.10;0.10;;;22.50;61.10;;;;;;4972040;28;20053;-69
2023/07/14 12:57:42;;;;;;;0.00;0.00;;;22.30;61.00;;;;;;4983541;28;20069;-69
2023/07/14 13:00:25;;;;;;;0.00;0.00;;;22.20;61.70;;;;;;4976193;28;20039;-69
2023/07/14 13:02:52;;;;;;;0.00;0.00;;;22.10;62.30;;;;;;4981017;28;20134;-69
2023/07/14 13:05:20;;;;;;;0.00;0.00;;;22.00;62.70;;;;;;4975991;28;20045;-69
2023/07/14 13:07:52;;;;;;;0.00;0.00;;;21.90;63.50;;;;;;4972222;28;20070;-69